createdAt,value
2018-03-19T00:00:49.592Z,-2.92
2018-03-19T00:01:49.837Z,-2.92
2018-03-19T00:02:49.552Z,-2.94
2018-03-19T00:03:49.550Z,-3.03
2018-03-19T00:04:49.534Z,-3
2018-03-19T00:05:49.790Z,-2.96
2018-03-19T00:06:49.741Z,-2.97
2018-03-19T00:07:49.724Z,-3.05
2018-03-19T00:08:49.706Z,-2.97
2018-03-19T00:09:49.426Z,-2.99
2018-03-19T00:10:49.671Z,-2.96
2018-03-19T00:11:49.665Z,-3
2018-03-19T00:12:49.380Z,-2.94
2018-03-19T00:13:49.617Z,-3
2018-03-19T00:14:49.597Z,-2.96
2018-03-19T00:15:49.581Z,-2.99
2018-03-19T00:16:49.552Z,-2.99
2018-03-19T00:17:49.543Z,-2.94
2018-03-19T00:18:49.520Z,-2.99
2018-03-19T00:19:49.507Z,-3.03
2018-03-19T00:20:49.480Z,-3.02
2018-03-19T00:21:49.462Z,-3.03
2018-03-19T00:22:49.444Z,-3
2018-03-19T00:23:49.181Z,-3.06
2018-03-19T00:24:49.152Z,-3.09
2018-03-19T00:25:49.402Z,-3.05
2018-03-19T00:26:49.121Z,-3.06
2018-03-19T00:27:49.388Z,-3.02
2018-03-19T00:28:49.352Z,-3.09
2018-03-19T00:29:49.325Z,-3.03
2018-03-19T00:30:49.294Z,-3.14
2018-03-19T00:31:49.278Z,-3.05
2018-03-19T00:32:49.017Z,-3.07
2018-03-19T00:33:49.243Z,-3.03
2018-03-19T00:34:49.227Z,-3.12
2018-03-19T00:35:49.202Z,-3.12
2018-03-19T00:36:49.193Z,-3.23
2018-03-19T00:37:49.168Z,-3.05
2018-03-19T00:38:49.170Z,-3.06
2018-03-19T00:39:49.139Z,-3.17
2018-03-19T00:40:49.118Z,-3.09
2018-03-19T00:41:49.099Z,-3.15
2018-03-19T00:42:49.074Z,-3.25
2018-03-19T00:43:49.074Z,-3.25
2018-03-19T00:44:48.787Z,-3.21
2018-03-19T00:45:49.037Z,-3.24
2018-03-19T00:46:49.000Z,-3.28
2018-03-19T00:47:48.982Z,-3.21
2018-03-19T00:48:48.712Z,-3.21
2018-03-19T00:49:48.945Z,-3.24
2018-03-19T00:50:48.932Z,-3.25
2018-03-19T00:51:48.915Z,-3.3
2018-03-19T00:52:48.894Z,-3.21
2018-03-19T00:53:48.880Z,-3.27
2018-03-19T00:54:48.856Z,-3.27
2018-03-19T00:55:48.836Z,-3.2
2018-03-19T00:56:48.815Z,-3.27
2018-03-19T00:57:48.799Z,-3.25
2018-03-19T00:58:48.527Z,-3.35
2018-03-19T00:59:48.761Z,-3.31
2018-03-19T01:00:48.749Z,-3.25
2018-03-19T01:01:48.729Z,-3.25
2018-03-19T01:02:48.706Z,-3.27
2018-03-19T01:03:48.695Z,-3.31
2018-03-19T01:04:48.666Z,-3.33
2018-03-19T01:05:48.659Z,-3.31
2018-03-19T01:06:48.635Z,-3.36
2018-03-19T01:07:48.103Z,-3.35
2018-03-19T01:08:48.593Z,-3.42
2018-03-19T01:09:48.320Z,-3.35
2018-03-19T01:10:48.559Z,-3.38
2018-03-19T01:11:48.538Z,-3.42
2018-03-19T01:12:48.520Z,-3.41
2018-03-19T01:13:48.503Z,-3.45
2018-03-19T01:14:48.490Z,-3.35
2018-03-19T01:15:48.468Z,-3.42
2018-03-19T01:16:48.447Z,-3.42
2018-03-19T01:17:48.431Z,-3.45
2018-03-19T01:18:48.433Z,-3.38
2018-03-19T01:19:48.393Z,-3.41
2018-03-19T01:20:48.371Z,-3.52
2018-03-19T01:21:48.352Z,-3.52
2018-03-19T01:22:48.082Z,-3.52
2018-03-19T01:23:48.318Z,-3.46
2018-03-19T01:24:48.302Z,-3.45
2018-03-19T01:25:48.279Z,-3.46
2018-03-19T01:26:48.282Z,-3.48
2018-03-19T01:27:48.242Z,-3.45
2018-03-19T01:28:48.227Z,-3.43
2018-03-19T01:29:48.207Z,-3.45
2018-03-19T01:30:48.208Z,-3.48
2018-03-19T01:31:48.169Z,-3.48
2018-03-19T01:32:48.155Z,-3.53
2018-03-19T01:33:48.133Z,-3.52
2018-03-19T01:34:48.118Z,-3.49
2018-03-19T01:35:47.839Z,-3.56
2018-03-19T01:36:47.823Z,-3.54
2018-03-19T01:37:48.064Z,-3.56
2018-03-19T01:38:48.033Z,-3.54
2018-03-19T01:39:48.019Z,-3.59
2018-03-19T01:40:48.007Z,-3.62
2018-03-19T01:41:47.979Z,-3.57
2018-03-19T01:42:47.963Z,-3.57
2018-03-19T01:43:47.944Z,-3.56
2018-03-19T01:44:47.928Z,-3.59
2018-03-19T01:45:47.915Z,-3.64
2018-03-19T01:46:47.884Z,-3.63
2018-03-19T01:47:47.882Z,-3.6
2018-03-19T01:48:47.854Z,-3.54
2018-03-19T01:49:47.830Z,-3.63
2018-03-19T01:50:47.816Z,-3.54
2018-03-19T01:51:47.539Z,-3.59
2018-03-19T01:52:47.775Z,-3.6
2018-03-19T01:53:47.754Z,-3.54
2018-03-19T01:54:47.743Z,-3.54
2018-03-19T01:55:47.719Z,-3.57
2018-03-19T01:56:47.445Z,-3.6
2018-03-19T01:57:47.433Z,-3.6
2018-03-19T01:58:47.671Z,-3.6
2018-03-19T01:59:47.642Z,-3.63
2018-03-19T02:00:47.626Z,-3.6
2018-03-19T02:01:47.606Z,-3.62
2018-03-19T02:02:47.604Z,-3.49
2018-03-19T02:03:47.572Z,-3.6
2018-03-19T02:04:47.552Z,-3.62
2018-03-19T02:05:47.528Z,-3.63
2018-03-19T02:06:47.273Z,-3.66
2018-03-19T02:07:47.499Z,-3.69
2018-03-19T02:08:47.478Z,-3.67
2018-03-19T02:09:47.459Z,-3.69
2018-03-19T02:10:47.442Z,-3.78
2018-03-19T02:11:47.420Z,-3.79
2018-03-19T02:12:47.406Z,-3.85
2018-03-19T02:13:47.389Z,-3.88
2018-03-19T02:14:47.111Z,-3.9
2018-03-19T02:15:47.341Z,-3.85
2018-03-19T02:16:47.324Z,-3.97
2018-03-19T02:17:47.306Z,-3.97
2018-03-19T02:18:47.287Z,-4
2018-03-19T02:19:47.270Z,-4.07
2018-03-19T02:20:47.248Z,-4.18
2018-03-19T02:21:47.228Z,-4.17
2018-03-19T02:22:47.218Z,-4.17
2018-03-19T02:23:47.196Z,-4.2
2018-03-19T02:24:47.169Z,-4.17
2018-03-19T02:25:47.158Z,-4.3
2018-03-19T02:26:47.134Z,-4.33
2018-03-19T02:27:47.119Z,-4.36
2018-03-19T02:28:47.101Z,-4.29
2018-03-19T02:29:47.077Z,-4.38
2018-03-19T02:30:47.071Z,-4.43
2018-03-19T02:31:47.047Z,-4.42
2018-03-19T02:32:47.030Z,-4.58
2018-03-19T02:33:46.765Z,-4.53
2018-03-19T02:34:46.986Z,-4.6
2018-03-19T02:35:46.978Z,-4.65
2018-03-19T02:36:46.950Z,-4.6
2018-03-19T02:37:46.933Z,-4.63
2018-03-19T02:38:46.913Z,-4.74
2018-03-19T02:39:46.634Z,-4.69
2018-03-19T02:40:46.878Z,-4.68
2018-03-19T02:41:46.870Z,-4.75
2018-03-19T02:42:46.834Z,-4.74
2018-03-19T02:43:46.853Z,-4.77
2018-03-19T02:44:46.793Z,-4.83
2018-03-19T02:45:46.773Z,-4.81
2018-03-19T02:46:46.759Z,-4.83
2018-03-19T02:47:46.744Z,-4.79
2018-03-19T02:48:46.728Z,-4.93
2018-03-19T02:49:46.700Z,-4.89
2018-03-19T02:50:46.418Z,-4.92
2018-03-19T02:51:46.453Z,-4.96
2018-03-19T02:52:46.642Z,-4.9
2018-03-19T02:53:46.370Z,-5
2018-03-19T02:54:46.598Z,-4.96
2018-03-19T02:55:46.603Z,-4.99
2018-03-19T02:56:46.560Z,-4.95
2018-03-19T02:57:46.545Z,-5
2018-03-19T02:58:46.527Z,-4.95
2018-03-19T02:59:46.508Z,-4.97
2018-03-19T03:00:46.486Z,-4.96
2018-03-19T03:01:46.219Z,-5.04
2018-03-19T03:02:46.455Z,-5.11
2018-03-19T03:03:46.439Z,-5.03
2018-03-19T03:04:46.412Z,-5.03
2018-03-19T03:05:46.394Z,-5.07
2018-03-19T03:06:46.376Z,-5.08
2018-03-19T03:07:46.353Z,-5.13
2018-03-19T03:08:46.335Z,-5.07
2018-03-19T03:09:46.060Z,-5.07
2018-03-19T03:10:46.299Z,-5.08
2018-03-19T03:11:46.269Z,-5.23
2018-03-19T03:12:46.254Z,-5.11
2018-03-19T03:13:46.234Z,-5.14
2018-03-19T03:14:46.215Z,-5.17
2018-03-19T03:15:46.207Z,-5.17
2018-03-19T03:16:46.177Z,-5.1
2018-03-19T03:17:45.902Z,-5.18
2018-03-19T03:18:46.132Z,-5.22
2018-03-19T03:19:46.117Z,-5.14
2018-03-19T03:20:46.102Z,-5.18
2018-03-19T03:21:46.081Z,-5.1
2018-03-19T03:22:46.059Z,-5.1
2018-03-19T03:23:46.037Z,-5.13
2018-03-19T03:24:46.017Z,-5.11
2018-03-19T03:25:46.000Z,-5.22
2018-03-19T03:26:45.979Z,-5.18
2018-03-19T03:27:45.957Z,-5.25
2018-03-19T03:28:45.941Z,-5.25
2018-03-19T03:29:45.920Z,-5.14
2018-03-19T03:30:45.908Z,-5.23
2018-03-19T03:31:45.904Z,-5.26
2018-03-19T03:32:45.862Z,-5.23
2018-03-19T03:33:45.844Z,-5.27
2018-03-19T03:34:45.827Z,-5.27
2018-03-19T03:35:45.810Z,-5.22
2018-03-19T03:36:45.784Z,-5.13
2018-03-19T03:37:45.768Z,-5.23
2018-03-19T03:38:45.741Z,-5.26
2018-03-19T03:39:45.728Z,-5.29
2018-03-19T03:40:45.707Z,-5.27
2018-03-19T03:41:45.686Z,-5.27
2018-03-19T03:42:45.670Z,-5.32
2018-03-19T03:43:45.652Z,-5.25
2018-03-19T03:44:45.636Z,-5.23
2018-03-19T03:45:45.606Z,-5.29
2018-03-19T03:46:45.595Z,-5.27
2018-03-19T03:47:45.578Z,-5.22
2018-03-19T03:48:45.336Z,-5.27
2018-03-19T03:49:45.528Z,-5.27
2018-03-19T03:50:45.511Z,-5.25
2018-03-19T03:51:45.500Z,-5.3
2018-03-19T03:52:45.475Z,-5.26
2018-03-19T03:53:45.504Z,-5.29
2018-03-19T03:54:45.176Z,-5.26
2018-03-19T03:55:45.464Z,-5.29
2018-03-19T03:56:45.396Z,-5.32
2018-03-19T03:57:45.383Z,-5.36
2018-03-19T03:58:45.352Z,-5.32
2018-03-19T03:59:45.336Z,-5.32
2018-03-19T04:00:45.316Z,-5.29
2018-03-19T04:01:45.298Z,-5.26
2018-03-19T04:02:45.284Z,-5.33
2018-03-19T04:03:45.257Z,-5.32
2018-03-19T04:04:45.236Z,-5.22
2018-03-19T04:05:45.217Z,-5.26
2018-03-19T04:06:45.198Z,-5.3
2018-03-19T04:07:44.920Z,-5.25
2018-03-19T04:08:45.155Z,-5.37
2018-03-19T04:09:45.149Z,-5.29
2018-03-19T04:10:45.126Z,-5.29
2018-03-19T04:11:45.102Z,-5.27
2018-03-19T04:12:45.079Z,-5.3
2018-03-19T04:13:45.054Z,-5.29
2018-03-19T04:14:45.041Z,-5.27
2018-03-19T04:15:45.020Z,-5.17
2018-03-19T04:16:44.748Z,-5.22
2018-03-19T04:17:45.040Z,-5.27
2018-03-19T04:18:44.967Z,-5.29
2018-03-19T04:19:44.955Z,-5.27
2018-03-19T04:20:44.919Z,-5.23
2018-03-19T04:21:44.906Z,-5.26
2018-03-19T04:22:44.884Z,-5.26
2018-03-19T04:23:44.859Z,-5.39
2018-03-19T04:24:44.841Z,-5.25
2018-03-19T04:25:44.835Z,-5.32
2018-03-19T04:26:44.804Z,-5.35
2018-03-19T04:27:44.531Z,-5.33
2018-03-19T04:28:44.770Z,-5.29
2018-03-19T04:29:44.751Z,-5.3
2018-03-19T04:30:44.724Z,-5.36
2018-03-19T04:31:44.735Z,-5.22
2018-03-19T04:32:44.437Z,-5.33
2018-03-19T04:33:44.681Z,-5.41
2018-03-19T04:34:44.646Z,-5.33
2018-03-19T04:35:44.633Z,-5.43
2018-03-19T04:36:44.356Z,-5.39
2018-03-19T04:37:44.603Z,-5.43
2018-03-19T04:38:44.572Z,-5.39
2018-03-19T04:39:44.553Z,-5.33
2018-03-19T04:40:44.534Z,-5.47
2018-03-19T04:41:44.513Z,-5.48
2018-03-19T04:42:44.491Z,-5.51
2018-03-19T04:43:44.469Z,-5.57
2018-03-19T04:44:44.454Z,-5.48
2018-03-19T04:45:44.437Z,-5.48
2018-03-19T04:46:44.414Z,-5.44
2018-03-19T04:47:44.390Z,-5.57
2018-03-19T04:48:44.119Z,-5.47
2018-03-19T04:49:44.356Z,-5.55
2018-03-19T04:50:44.333Z,-5.57
2018-03-19T04:51:44.315Z,-5.51
2018-03-19T04:52:44.298Z,-5.51
2018-03-19T04:53:44.279Z,-5.46
2018-03-19T04:54:44.266Z,-5.51
2018-03-19T04:55:44.240Z,-5.5
2018-03-19T04:56:43.964Z,-5.54
2018-03-19T04:57:44.216Z,-5.55
2018-03-19T04:58:43.940Z,-5.62
2018-03-19T04:59:44.165Z,-5.62
2018-03-19T05:00:44.144Z,-5.59
2018-03-19T05:01:44.118Z,-5.53
2018-03-19T05:02:44.096Z,-5.59
2018-03-19T05:03:44.077Z,-5.62
2018-03-19T05:04:44.074Z,-5.62
2018-03-19T05:05:44.042Z,-5.54
2018-03-19T05:06:44.019Z,-5.71
2018-03-19T05:07:44.007Z,-5.53
2018-03-19T05:08:43.982Z,-5.55
2018-03-19T05:09:43.704Z,-5.54
2018-03-19T05:10:43.990Z,-5.55
2018-03-19T05:11:43.922Z,-5.61
2018-03-19T05:12:43.646Z,-5.59
2018-03-19T05:13:43.878Z,-5.5
2018-03-19T05:14:43.870Z,-5.59
2018-03-19T05:15:43.847Z,-5.64
2018-03-19T05:16:43.822Z,-5.51
2018-03-19T05:17:43.923Z,-5.53
2018-03-19T05:18:43.787Z,-5.62
2018-03-19T05:19:43.510Z,-5.51
2018-03-19T05:20:43.740Z,-5.59
2018-03-19T05:21:43.726Z,-5.59
2018-03-19T05:22:43.703Z,-5.47
2018-03-19T05:23:43.687Z,-5.47
2018-03-19T05:24:43.675Z,-5.5
2018-03-19T05:25:43.642Z,-5.53
2018-03-19T05:26:43.624Z,-5.47
2018-03-19T05:27:43.618Z,-5.53
2018-03-19T05:28:43.592Z,-5.57
2018-03-19T05:29:43.565Z,-5.48
2018-03-19T05:30:43.547Z,-5.51
2018-03-19T05:31:43.533Z,-5.55
2018-03-19T05:32:43.504Z,-5.5
2018-03-19T05:33:43.232Z,-5.43
2018-03-19T05:34:43.475Z,-5.46
2018-03-19T05:35:43.192Z,-5.5
2018-03-19T05:36:43.432Z,-5.32
2018-03-19T05:37:43.413Z,-5.14
2018-03-19T05:38:43.519Z,-5.17
2018-03-19T05:39:43.380Z,-4.96
2018-03-19T05:40:43.097Z,-4.9
2018-03-19T05:41:43.373Z,-4.72
2018-03-19T05:42:43.320Z,-4.56
2018-03-19T05:43:43.293Z,-4.43
2018-03-19T05:44:43.274Z,-4.28
2018-03-19T05:45:43.257Z,-4.25
2018-03-19T05:46:42.979Z,-4.07
2018-03-19T05:47:42.961Z,-4.06
2018-03-19T05:48:43.199Z,-3.82
2018-03-19T05:49:43.197Z,-3.75
2018-03-19T05:50:43.170Z,-3.62
2018-03-19T05:51:43.149Z,-3.45
2018-03-19T05:52:43.146Z,-3.38
2018-03-19T05:53:43.159Z,-3.24
2018-03-19T05:54:43.130Z,-3.06
2018-03-19T05:55:43.080Z,-2.92
2018-03-19T05:56:43.254Z,-2.82
2018-03-19T05:57:43.038Z,-2.61
2018-03-19T05:58:42.768Z,-2.48
2018-03-19T05:59:43.012Z,-2.24
2018-03-19T06:00:42.995Z,-2.12
2018-03-19T06:01:42.982Z,-2.13
2018-03-19T06:02:43.076Z,-2.03
2018-03-19T06:03:42.940Z,-1.95
2018-03-19T06:04:42.926Z,-1.76
2018-03-19T06:05:42.910Z,-1.72
2018-03-19T06:06:42.639Z,-1.55
2018-03-19T06:07:42.894Z,-1.51
2018-03-19T06:08:42.870Z,-1.23
2018-03-19T06:09:42.857Z,-1.2
2018-03-19T06:10:42.581Z,-1.07
2018-03-19T06:11:42.310Z,-0.99
2018-03-19T06:12:42.803Z,-0.8
2018-03-19T06:13:42.556Z,-0.8
2018-03-19T06:14:42.776Z,-0.7
2018-03-19T06:15:42.514Z,-0.61
2018-03-19T06:16:42.234Z,-0.6
2018-03-19T06:17:42.225Z,-0.42
2018-03-19T06:18:42.722Z,-0.36
2018-03-19T06:19:42.727Z,-0.26
2018-03-19T06:20:42.744Z,-0.16
2018-03-19T06:21:42.424Z,0.11
2018-03-19T06:22:42.424Z,0.2
2018-03-19T06:23:42.658Z,0.13
2018-03-19T06:24:42.386Z,0.1
2018-03-19T06:25:42.633Z,0.11
2018-03-19T06:26:42.364Z,0.04
2018-03-19T06:27:42.607Z,0.28
2018-03-19T06:28:42.341Z,0.5
2018-03-19T06:29:42.316Z,0.62
2018-03-19T06:30:42.312Z,0.79
2018-03-19T06:31:42.550Z,0.93
2018-03-19T06:32:42.540Z,1.02
2018-03-19T06:33:42.543Z,1.14
2018-03-19T06:34:42.515Z,1.27
2018-03-19T06:35:42.506Z,1.41
2018-03-19T06:36:42.492Z,1.59
2018-03-19T06:37:42.491Z,1.62
2018-03-19T06:38:42.468Z,1.65
2018-03-19T06:39:42.458Z,1.83
2018-03-19T06:40:42.446Z,2.05
2018-03-19T06:41:42.187Z,2.2
2018-03-19T06:42:42.424Z,2.35
2018-03-19T06:43:42.155Z,2.27
2018-03-19T06:44:42.467Z,2.23
2018-03-19T06:45:42.392Z,2.35
2018-03-19T06:46:42.383Z,2.41
2018-03-19T06:47:42.388Z,2.49
2018-03-19T06:48:42.361Z,2.69
2018-03-19T06:49:42.347Z,2.87
2018-03-19T06:50:42.341Z,2.93
2018-03-19T06:51:42.334Z,3.18
2018-03-19T06:52:42.323Z,3.35
2018-03-19T06:53:42.308Z,3.75
2018-03-19T06:54:42.304Z,4.05
2018-03-19T06:55:42.300Z,4.23
2018-03-19T06:56:42.295Z,4.4
2018-03-19T06:57:42.324Z,4.54
2018-03-19T06:58:42.265Z,4.54
2018-03-19T06:59:42.256Z,4.5
2018-03-19T07:00:42.252Z,4.47
2018-03-19T07:01:41.994Z,4.48
2018-03-19T07:02:42.238Z,4.24
2018-03-19T07:03:42.230Z,4.23
2018-03-19T07:04:42.225Z,4.2
2018-03-19T07:05:42.214Z,4.09
2018-03-19T07:06:42.204Z,4.06
2018-03-19T07:07:42.194Z,4.05
2018-03-19T07:08:42.244Z,3.88
2018-03-19T07:09:42.187Z,3.7
2018-03-19T07:10:42.173Z,3.66
2018-03-19T07:11:42.175Z,3.61
2018-03-19T07:12:42.162Z,3.54
2018-03-19T07:13:41.635Z,3.48
2018-03-19T07:14:42.143Z,3.31
2018-03-19T07:15:42.151Z,3.45
2018-03-19T07:16:42.126Z,3.66
2018-03-19T07:17:42.122Z,3.6
2018-03-19T07:18:42.119Z,3.54
2018-03-19T07:19:42.108Z,3.23
2018-03-19T07:20:42.095Z,3.21
2018-03-19T07:21:42.093Z,3.17
2018-03-19T07:22:42.139Z,3.26
2018-03-19T07:23:42.079Z,3.08
2018-03-19T07:24:42.101Z,2.95
2018-03-19T07:25:42.084Z,2.96
2018-03-19T07:26:41.807Z,2.92
2018-03-19T07:27:42.069Z,2.85
2018-03-19T07:28:42.220Z,2.75
2018-03-19T07:29:42.034Z,2.69
2018-03-19T07:30:41.794Z,2.57
2018-03-19T07:31:42.027Z,2.59
2018-03-19T07:32:42.024Z,2.48
2018-03-19T07:33:42.011Z,2.6
2018-03-19T07:34:42.743Z,2.74
2018-03-19T07:35:42.010Z,2.87
2018-03-19T07:36:42.008Z,3.13
2018-03-19T07:37:41.989Z,3.24
2018-03-19T07:38:41.982Z,3.31
2018-03-19T07:39:41.741Z,3.26
2018-03-19T07:40:42.005Z,3.24
2018-03-19T07:41:41.987Z,3.28
2018-03-19T07:42:41.970Z,3.47
2018-03-19T07:43:41.958Z,3.55
2018-03-19T07:44:41.955Z,3.57
2018-03-19T07:45:41.960Z,3.58
2018-03-19T07:46:42.112Z,3.54
2018-03-19T07:47:41.679Z,3.51
2018-03-19T07:48:42.007Z,3.6
2018-03-19T07:49:41.923Z,3.65
2018-03-19T07:50:41.662Z,3.5
2018-03-19T07:51:41.945Z,3.36
2018-03-19T07:52:41.904Z,3.18
2018-03-19T07:53:41.897Z,3.11
2018-03-19T07:54:41.890Z,3.05
2018-03-19T07:55:41.911Z,3.03
2018-03-19T07:56:41.880Z,3.17
2018-03-19T07:57:41.882Z,3.32
2018-03-19T07:58:41.861Z,3.28
2018-03-19T07:59:41.606Z,3.2
2018-03-19T08:00:41.594Z,3.13
2018-03-19T08:01:41.866Z,2.92
2018-03-19T08:02:41.834Z,2.85
2018-03-19T08:03:41.831Z,2.69
2018-03-19T08:04:41.566Z,2.67
2018-03-19T08:05:41.871Z,2.72
2018-03-19T08:06:41.820Z,2.72
2018-03-19T08:07:41.550Z,2.52
2018-03-19T08:08:41.540Z,2.23
2018-03-19T08:09:41.548Z,2.06
2018-03-19T08:10:41.525Z,1.88
2018-03-19T08:11:41.779Z,1.76
2018-03-19T08:12:41.766Z,1.63
2018-03-19T08:13:41.771Z,1.63
2018-03-19T08:14:41.778Z,1.6
2018-03-19T08:15:41.753Z,1.55
2018-03-19T08:16:41.734Z,1.58
2018-03-19T08:17:41.726Z,1.54
2018-03-19T08:18:41.889Z,1.44
2018-03-19T08:19:41.736Z,1.36
2018-03-19T08:20:41.696Z,1.32
2018-03-19T08:21:41.712Z,1.16
2018-03-19T08:22:41.685Z,1.15
2018-03-19T08:23:41.671Z,1.05
2018-03-19T08:24:41.667Z,0.8
2018-03-19T08:25:41.718Z,0.88
2018-03-19T08:26:41.624Z,0.83
2018-03-19T08:27:41.612Z,0.69
2018-03-19T08:28:41.605Z,0.6
2018-03-19T08:29:41.593Z,0.44
2018-03-19T08:30:41.320Z,0.31
2018-03-19T08:31:41.560Z,0.28
2018-03-19T08:32:41.552Z,0.2
2018-03-19T08:33:41.536Z,0.13
2018-03-19T08:34:41.532Z,0.13
2018-03-19T08:35:41.510Z,0.15
2018-03-19T08:36:41.502Z,0.17
2018-03-19T08:37:41.481Z,0.17
2018-03-19T08:38:41.212Z,0.21
2018-03-19T08:39:41.473Z,0.1
2018-03-19T08:40:41.478Z,0.11
2018-03-19T08:41:41.495Z,0.11
2018-03-19T08:42:42.084Z,-0.04
2018-03-19T08:43:41.145Z,-0.1
2018-03-19T08:44:41.383Z,-0.05
2018-03-19T08:45:41.180Z,-0.05
2018-03-19T08:46:41.364Z,-0.05
2018-03-19T08:47:41.353Z,-0.01
2018-03-19T08:48:41.360Z,-0.19
2018-03-19T08:49:41.072Z,-0.15
2018-03-19T08:50:41.050Z,-0.18
2018-03-19T08:51:41.324Z,-0.14
2018-03-19T08:52:41.012Z,-0.23
2018-03-19T08:53:41.267Z,-0.21
2018-03-19T08:54:41.247Z,-0.15
2018-03-19T08:55:41.267Z,-0.14
2018-03-19T08:56:41.207Z,-0.11
2018-03-19T08:57:41.200Z,-0.14
2018-03-19T08:58:40.934Z,-0.1
2018-03-19T08:59:41.164Z,-0.08
2018-03-19T09:00:41.145Z,-0.15
2018-03-19T09:01:41.150Z,-0.01
2018-03-19T09:02:41.185Z,-0.01
2018-03-19T09:03:41.107Z,0.07
2018-03-19T09:04:40.846Z,0.07
2018-03-19T09:05:41.092Z,0.07
2018-03-19T09:06:41.078Z,0.15
2018-03-19T09:07:41.067Z,0.29
2018-03-19T09:08:41.040Z,0.24
2018-03-19T09:09:41.022Z,0.31
2018-03-19T09:10:41.010Z,0.29
2018-03-19T09:11:40.993Z,0.32
2018-03-19T09:12:41.115Z,0.38
2018-03-19T09:13:40.995Z,0.44
2018-03-19T09:14:40.931Z,0.44
2018-03-19T09:15:40.949Z,0.47
2018-03-19T09:16:40.912Z,0.57
2018-03-19T09:17:40.949Z,0.5
2018-03-19T09:18:40.636Z,0.58
2018-03-19T09:19:40.390Z,0.61
2018-03-19T09:20:40.848Z,0.61
2018-03-19T09:21:40.831Z,0.62
2018-03-19T09:22:40.825Z,0.65
2018-03-19T09:23:40.810Z,0.75
2018-03-19T09:24:40.803Z,0.68
2018-03-19T09:25:40.791Z,0.72
2018-03-19T09:26:40.757Z,0.7
2018-03-19T09:27:40.739Z,0.7
2018-03-19T09:28:40.746Z,0.69
2018-03-19T09:29:40.728Z,0.6
2018-03-19T09:30:40.746Z,0.53
2018-03-19T09:31:40.175Z,0.47
2018-03-19T09:32:40.173Z,0.55
2018-03-19T09:33:40.708Z,0.51
2018-03-19T09:34:40.698Z,0.46
2018-03-19T09:35:40.112Z,0.49
2018-03-19T09:36:40.766Z,0.46
2018-03-19T09:37:40.596Z,0.47
2018-03-19T09:38:40.580Z,0.42
2018-03-19T09:39:40.556Z,0.47
2018-03-19T09:40:40.571Z,0.51
2018-03-19T09:41:40.703Z,0.5
2018-03-19T09:42:40.319Z,0.49
2018-03-19T09:43:40.517Z,0.46
2018-03-19T09:44:40.297Z,0.6
2018-03-19T09:45:40.482Z,0.61
2018-03-19T09:46:40.220Z,0.66
2018-03-19T09:47:40.466Z,0.8
2018-03-19T09:48:40.464Z,0.78
2018-03-19T09:49:40.170Z,0.86
2018-03-19T09:50:40.508Z,0.8
2018-03-19T09:51:40.447Z,0.9
2018-03-19T09:52:40.408Z,0.84
2018-03-19T09:53:40.111Z,0.84
2018-03-19T09:54:40.191Z,0.72
2018-03-19T09:55:40.085Z,0.88
2018-03-19T09:56:40.309Z,0.79
2018-03-19T09:57:40.337Z,0.84
2018-03-19T09:58:40.053Z,0.94
2018-03-19T09:59:40.022Z,0.84
2018-03-19T10:00:40.264Z,0.86
2018-03-19T10:01:40.256Z,0.83
2018-03-19T10:02:40.256Z,0.9
2018-03-19T10:03:40.199Z,0.88
2018-03-19T10:04:40.192Z,0.88
2018-03-19T10:05:39.924Z,0.72
2018-03-19T10:06:40.003Z,0.93
2018-03-19T10:07:39.885Z,0.87
2018-03-19T10:08:39.894Z,0.84
2018-03-19T10:09:39.857Z,0.86
2018-03-19T10:10:40.114Z,0.9
2018-03-19T10:11:40.084Z,0.86
2018-03-19T10:12:40.106Z,0.86
2018-03-19T10:13:40.085Z,0.75
2018-03-19T10:14:39.794Z,0.87
2018-03-19T10:15:40.040Z,0.94
2018-03-19T10:16:40.034Z,0.87
2018-03-19T10:17:39.745Z,0.91
2018-03-19T10:18:40.001Z,0.91
2018-03-19T10:19:39.963Z,0.98
2018-03-19T10:20:39.699Z,1.04
2018-03-19T10:21:40.017Z,1.06
2018-03-19T10:22:39.932Z,1.12
2018-03-19T10:23:39.903Z,1.11
2018-03-19T10:24:39.914Z,1.12
2018-03-19T10:25:39.883Z,1.12
2018-03-19T10:26:39.888Z,1.14
2018-03-19T10:27:39.662Z,1.18
2018-03-19T10:28:39.845Z,1.16
2018-03-19T10:29:39.578Z,1.06
2018-03-19T10:30:39.823Z,1.22
2018-03-19T10:31:39.528Z,1.26
2018-03-19T10:32:39.794Z,1.37
2018-03-19T10:33:39.765Z,1.34
2018-03-19T10:34:39.746Z,1.34
2018-03-19T10:35:39.469Z,1.33
2018-03-19T10:36:39.712Z,1.36
2018-03-19T10:37:39.717Z,1.45
2018-03-19T10:38:39.831Z,1.47
2018-03-19T10:39:39.676Z,1.47
2018-03-19T10:40:39.656Z,1.5
2018-03-19T10:41:39.915Z,1.41
2018-03-19T10:42:39.629Z,1.5
2018-03-19T10:43:39.613Z,1.47
2018-03-19T10:44:39.091Z,1.52
2018-03-19T10:45:39.585Z,1.59
2018-03-19T10:46:39.566Z,1.54
2018-03-19T10:47:39.564Z,1.72
2018-03-19T10:48:39.576Z,1.66
2018-03-19T10:49:39.524Z,1.79
2018-03-19T10:50:39.508Z,1.86
2018-03-19T10:51:39.505Z,1.8
2018-03-19T10:52:39.510Z,1.8
2018-03-19T10:53:39.472Z,1.83
2018-03-19T10:54:39.456Z,1.84
2018-03-19T10:55:39.441Z,1.8
2018-03-19T10:56:39.423Z,1.86
2018-03-19T10:57:39.411Z,1.9
2018-03-19T10:58:38.881Z,1.93
2018-03-19T10:59:39.386Z,1.95
2018-03-19T11:00:39.383Z,1.99
2018-03-19T11:01:39.098Z,2.07
2018-03-19T11:02:39.123Z,2.1
2018-03-19T11:03:39.078Z,2.05
2018-03-19T11:04:39.332Z,2.18
2018-03-19T11:05:39.317Z,2.23
2018-03-19T11:06:39.293Z,2.2
2018-03-19T11:07:39.292Z,2.39
2018-03-19T11:08:39.278Z,2.31
2018-03-19T11:09:39.275Z,2.34
2018-03-19T11:10:38.984Z,2.35
2018-03-19T11:11:39.214Z,2.34
2018-03-19T11:12:39.449Z,2.34
2018-03-19T11:13:38.930Z,2.2
2018-03-19T11:14:39.168Z,2.31
2018-03-19T11:15:39.157Z,2.27
2018-03-19T11:16:39.138Z,2.18
2018-03-19T11:17:39.161Z,2.25
2018-03-19T11:18:39.125Z,2.28
2018-03-19T11:19:39.102Z,2.25
2018-03-19T11:20:39.217Z,2.14
2018-03-19T11:21:39.069Z,2.21
2018-03-19T11:22:39.059Z,2.21
2018-03-19T11:23:39.052Z,2.31
2018-03-19T11:24:39.036Z,2.28
2018-03-19T11:25:39.022Z,2.38
2018-03-19T11:26:39.021Z,2.35
2018-03-19T11:27:39.004Z,2.41
2018-03-19T11:28:38.738Z,2.39
2018-03-19T11:29:38.965Z,2.42
2018-03-19T11:30:38.945Z,2.39
2018-03-19T11:31:38.927Z,2.41
2018-03-19T11:32:38.922Z,2.3
2018-03-19T11:33:38.914Z,2.34
2018-03-19T11:34:38.902Z,2.27
2018-03-19T11:35:38.892Z,2.23
2018-03-19T11:36:38.970Z,2.25
2018-03-19T11:37:38.877Z,2.14
2018-03-19T11:38:38.862Z,2.25
2018-03-19T11:39:38.818Z,2.31
2018-03-19T11:40:38.824Z,2.35
2018-03-19T11:41:38.798Z,2.35
2018-03-19T11:42:38.787Z,2.39
2018-03-19T11:43:38.516Z,2.43
2018-03-19T11:44:38.773Z,2.49
2018-03-19T11:45:38.480Z,2.42
2018-03-19T11:46:38.720Z,2.59
2018-03-19T11:47:38.743Z,2.53
2018-03-19T11:48:38.689Z,2.6
2018-03-19T11:49:38.682Z,2.57
2018-03-19T11:50:38.462Z,2.6
2018-03-19T11:51:38.651Z,2.61
2018-03-19T11:52:38.648Z,2.61
2018-03-19T11:53:38.637Z,2.59
2018-03-19T11:54:38.611Z,2.6
2018-03-19T11:55:38.635Z,2.56
2018-03-19T11:56:38.588Z,2.57
2018-03-19T11:57:38.565Z,2.57
2018-03-19T11:58:38.548Z,2.54
2018-03-19T11:59:38.542Z,2.67
2018-03-19T12:00:38.581Z,2.66
2018-03-19T12:01:38.505Z,2.69
2018-03-19T12:02:38.500Z,2.66
2018-03-19T12:03:38.507Z,2.81
2018-03-19T12:04:38.470Z,2.82
2018-03-19T12:05:38.473Z,2.79
2018-03-19T12:06:38.445Z,2.82
2018-03-19T12:07:38.437Z,2.84
2018-03-19T12:08:38.159Z,2.82
2018-03-19T12:09:38.400Z,2.81
2018-03-19T12:10:38.386Z,2.81
2018-03-19T12:11:38.369Z,2.82
2018-03-19T12:12:38.358Z,2.82
2018-03-19T12:13:38.353Z,2.89
2018-03-19T12:14:38.341Z,2.9
2018-03-19T12:15:38.064Z,2.87
2018-03-19T12:16:38.302Z,2.95
2018-03-19T12:17:38.291Z,2.99
2018-03-19T12:18:38.275Z,2.99
2018-03-19T12:19:38.278Z,2.96
2018-03-19T12:20:38.241Z,3.05
2018-03-19T12:21:38.252Z,3.13
2018-03-19T12:22:38.222Z,3.13
2018-03-19T12:23:38.200Z,3.14
2018-03-19T12:24:38.200Z,3.13
2018-03-19T12:25:38.193Z,3.23
2018-03-19T12:26:37.911Z,3.2
2018-03-19T12:27:38.159Z,3.24
2018-03-19T12:28:38.139Z,3.15
2018-03-19T12:29:38.140Z,3.28
2018-03-19T12:30:38.111Z,3.31
2018-03-19T12:31:38.093Z,3.2
2018-03-19T12:32:37.824Z,3.18
2018-03-19T12:33:38.088Z,3.29
2018-03-19T12:34:38.068Z,3.21
2018-03-19T12:35:38.053Z,3.36
2018-03-19T12:36:38.029Z,3.29
2018-03-19T12:37:38.021Z,3.36
2018-03-19T12:38:38.020Z,3.35
2018-03-19T12:39:37.986Z,3.31
2018-03-19T12:40:37.981Z,3.28
2018-03-19T12:41:37.963Z,3.21
2018-03-19T12:42:37.957Z,3.26
2018-03-19T12:43:37.946Z,3.18
2018-03-19T12:44:37.914Z,3.23
2018-03-19T12:45:37.910Z,3.33
2018-03-19T12:46:38.152Z,3.35
2018-03-19T12:47:37.922Z,3.29
2018-03-19T12:48:37.873Z,3.26
2018-03-19T12:49:37.861Z,3.32
2018-03-19T12:50:37.580Z,3.39
2018-03-19T12:51:37.571Z,3.33
2018-03-19T12:52:37.811Z,3.32
2018-03-19T12:53:37.798Z,3.36
2018-03-19T13:01:37.700Z,3.52
2018-03-19T13:02:37.690Z,3.47
2018-03-19T13:03:37.681Z,3.52
2018-03-19T13:04:37.660Z,3.58
2018-03-19T13:05:37.649Z,3.43
2018-03-19T13:06:37.637Z,3.47
2018-03-19T13:07:37.776Z,3.47
2018-03-19T13:08:37.342Z,3.43
2018-03-19T13:09:37.585Z,3.57
2018-03-19T13:10:37.612Z,3.51
2018-03-19T13:11:37.562Z,3.65
2018-03-19T13:12:37.316Z,3.6
2018-03-19T13:13:37.315Z,3.72
2018-03-19T13:14:37.554Z,3.72
2018-03-19T13:15:37.533Z,3.65